This is the latest recevied weather packets stored in our database for station/object IU5JAE-13. If no packets are shown the sender has not sent any weather packets the latest 10 day(s).
| Time | Temp. | Humidity | Pressure | Rain* | Wind** | Luminosity | Snow |
|---|---|---|---|---|---|---|---|
| 1777707324 | 16.11° C | 46% | 1025.1 hPa | 0 mm | - | 411 W/m² | - |
| 1777706722 | 15° C | 49% | 1025.3 hPa | 0 mm | - | 377 W/m² | - |
| 1777706120 | 15.56° C | 47% | 1025.4 hPa | 0 mm | - | 349 W/m² | - |
| 1777705517 | 14.44° C | 49% | 1025.2 hPa | 0 mm | - | 316 W/m² | - |
| 1777704935 | 14.44° C | 50% | 1025.3 hPa | 0 mm | - | 281 W/m² | - |
| 1777704333 | 13.89° C | 49% | 1025.3 hPa | 0 mm | - | 245 W/m² | - |
| 1777703730 | 15° C | 47% | 1025.5 hPa | 0 mm | - | 210 W/m² | - |
| 1777703128 | 15.56° C | 46% | 1025.4 hPa | 0 mm | - | 182 W/m² | - |
| 1777702525 | 13.33° C | 48% | 1025.4 hPa | 0 mm | - | 150 W/m² | - |
| 1777701923 | 13.33° C | 49% | 1025.4 hPa | 0 mm | - | 126 W/m² | - |
| 1777701320 | 14.44° C | 47% | 1025.4 hPa | 0 mm | - | 100 W/m² | - |
| 1777700719 | 13.33° C | 46% | 1025.5 hPa | 0 mm | - | 80 W/m² | - |
| 1777700116 | 12.22° C | 50% | 1025.4 hPa | 0 mm | - | 67 W/m² | - |
| 1777699533 | 11.67° C | 52% | 1025.4 hPa | 0 mm | - | 56 W/m² | - |
| 1777698931 | 12.22° C | 48% | 1025.3 hPa | 0 mm | - | 45 W/m² | - |
| 1777698329 | 11.67° C | 46% | 1025.2 hPa | 0 mm | - | 36 W/m² | - |
| 1777697726 | 10.56° C | 49% | 1025.2 hPa | 0 mm | - | 27 W/m² | - |
| 1777697124 | 10° C | 50% | 1025.1 hPa | 0 mm | - | 15 W/m² | - |
| 1777696521 | 9.44° C | 51% | 1025.1 hPa | 0 mm | - | 11 W/m² | - |
| 1777695919 | 10° C | 49% | 1025.1 hPa | 0 mm | - | 7 W/m² | - |
| 1777695317 | 9.44° C | 48% | 1025.1 hPa | 0 mm | - | 4 W/m² | - |
| 1777694734 | 9.44° C | 51% | 1025 hPa | 0 mm | - | 1 W/m² | - |
| 1777694132 | 9.44° C | 52% | 1025 hPa | 0 mm | - | 0 W/m² | - |
| 1777693529 | 9.44° C | 52% | 1025 hPa | 0 mm | - | 0 W/m² | - |
| 1777692927 | 9.44° C | 52% | 1024.9 hPa | 0 mm | - | 0 W/m² | - |
* Rain latest hour (hover to see other rain measurements)
** Current wind speed in m/s (hover to see current wind gust speed)